x

Isle Of Shoals, Nh (iosn3) Weather Station

7:00am - Sat 22nd Jul 2017 All times are EDT. -4 hours from GMT.

  • Wind
    10mph, 10mph gusts
  • Air Temp 72°f
  • Sea Pressure 1010.3mb
  • Isle Of Shoals, Nh
  • Isle Of Shoals, Nh

More Historic Weather Station data

Upgrade to MSW Pro to gain access to the past 30 days of data for over 8000 Wavebouys and Weather Stations around the globe.

Join Pro

Comparision Forecast

View Surf forecast
   
Sat 07/22 7:00am 10 10 mph 1010.3mb 72f
6:00am 11 11 mph 1009.4mb 72f
5:00am 9 10 mph 1009.4mb 71f
4:00am 15 15 mph 1008.9mb 73f
3:00am 17 17 mph 1008.7mb 74f
2:00am 22 23 mph 1008.2mb 76f
1:00am 21 21 mph 1008.5mb 75f
12:00am 20 20 mph 1008.3mb 77f
Fri 07/21 11:00pm 16 17 mph 1008.1mb 79f
10:00pm 18 18 mph 1008.3mb 80f
9:00pm 10 10 mph 1008.2mb 83f
8:00pm 9 10 mph 1007.9mb 80f
7:00pm 8 9 mph 1007.4mb 80f
6:00pm 15 16 mph 1007.1mb 78f
5:00pm 16 18 mph 1007.5mb 76f
4:00pm 18 20 mph 1007.6mb 77f
3:00pm 15 16 mph 1008.1mb 75f
2:00pm 11 11 mph 1008.9mb 75f
1:00pm 7 7 mph 1009.4mb 77f
12:00pm 6 6 mph 1009.9mb 75f
11:00am 1 1 mph 1010.3mb 75f
10:00am 7 7 mph 1010.6mb 73f
9:00am 8 8 mph 1010.2mb 71f
8:00am 8 8 mph 1009.9mb 69f
7:00am 9 10 mph 1009.8mb 68f
6:00am 14 14 mph 1009.6mb 69f
5:00am 9 10 mph 1009.4mb 69f
4:00am 10 10 mph 1008.7mb 70f
3:00am 11 11 mph 1008.7mb 71f
2:00am 10 11 mph 1008.7mb 73f
1:00am 13 13 mph 1009mb 74f
12:00am 11 11 mph 1009.1mb 75f
Thu 07/20 11:00pm 14 14 mph 1009.6mb 72f
10:00pm 13 13 mph 1009.4mb 71f
9:00pm 8 8 mph 1010mb 75f
8:00pm 15 15 mph 1009.8mb 71f
7:00pm 13 13 mph 1009.3mb 74f
6:00pm 16 20 mph 1010mb 75f
5:00pm 28 31 mph 1009.7mb 73f
4:00pm 24 24 mph 1009.9mb 78f
3:00pm 22 22 mph 1010.2mb 80f
2:00pm 20 20 mph 1011mb 79f
1:00pm 10 10 mph 1011.9mb 80f
12:00pm 6 6 mph 1012.8mb 79f
11:00am 9 9 mph 1012.9mb 79f
10:00am 8 8 mph 1012.9mb 77f
9:00am 7 7 mph 1013.4mb 74f
8:00am 9 9 mph 1013.7mb 73f
7:00am 8 8 mph 1013.4mb 72f
6:00am 8 8 mph 1013mb 70f
5:00am 10 10 mph 1013.1mb 72f
4:00am 8 9 mph 1012.8mb 74f
3:00am 10 10 mph 1012.8mb 76f
2:00am 11 11 mph 1013.2mb 74f
1:00am 11 13 mph 1013.3mb 75f
12:00am 9 9 mph 1013.4mb 78f
Wed 07/19 11:00pm 8 8 mph 1013.3mb 78f
10:00pm 8 9 mph 1013.5mb 76f
9:00pm 6 7 mph 1013mb 76f
8:00pm 2 3 mph 1012.5mb 75f
7:00pm 3 3 mph 1012.2mb 74f
6:00pm 14 14 mph 1012.1mb 79f
5:00pm 21 22 mph 1012.1mb 79f
4:00pm 20 20 mph 1012.6mb 71f
3:00pm 15 16 mph 1013mb 69f
2:00pm 14 15 mph 1013.9mb 68f
1:00pm 10 10 mph 1014.8mb 65f
12:00pm 8 8 mph 1015.6mb 65f
11:00am 5 5 mph 1016.2mb 65f
10:00am 3 3 mph 1016.4mb 65f
9:00am 3 3 mph 1016.5mb 65f
8:00am 5 5 mph 1016.6mb 65f
7:00am 2 3 mph 1016.8mb 65f
6:00am 2 2 mph 1016.6mb 66f
5:00am 5 5 mph 1016.5mb 66f
4:00am 9 9 mph 1016.4mb 65f
3:00am 7 7 mph 1016.5mb 65f
2:00am 3 3 mph 1016.4mb 69f
1:00am 2 2 mph 1016.7mb 69f
12:00am 3 3 mph 1017.2mb 70f
Tue 07/18 11:00pm 2 3 mph 1017mb 70f
10:00pm 5 7 mph 1017.3mb 70f
9:00pm 13 14 mph 1017mb 68f
8:00pm 16 17 mph 1016.8mb 69f
7:00pm 14 15 mph 1016.8mb 67f
6:00pm 18 20 mph 1016.4mb 68f
5:00pm 21 21 mph 1016.4mb 67f
4:00pm 18 20 mph 1016.8mb 71f
3:00pm 15 16 mph 1017.3mb 68f
2:00pm 16 17 mph 1017.7mb 68f
1:00pm 18 18 mph 1018.4mb 67f